createdAt,value
2018-10-05T00:01:26.727Z,11.83
2018-10-05T00:04:30.405Z,16.63
2018-10-05T00:07:36.814Z,14.13
2018-10-05T00:10:40.402Z,16.63
2018-10-05T00:13:43.950Z,15.57
2018-10-05T00:16:47.514Z,13.77
2018-10-05T00:19:51.454Z,13.70
2018-10-05T00:22:55.043Z,13.60
2018-10-05T00:25:58.645Z,17.10
2018-10-05T00:29:02.434Z,12.67
2018-10-05T00:32:06.131Z,13.33
2018-10-05T00:35:09.659Z,15.80
2018-10-05T00:38:13.180Z,17.90
2018-10-05T00:41:16.721Z,15.33
2018-10-05T00:44:20.304Z,11.07
2018-10-05T00:47:23.832Z,15.23
2018-10-05T00:50:27.434Z,13.10
2018-10-05T00:53:31.080Z,13.83
2018-10-05T00:56:34.641Z,18.00
2018-10-05T00:59:38.226Z,15.50
2018-10-05T01:02:41.766Z,14.10
2018-10-05T01:05:45.487Z,14.37
2018-10-05T01:08:49.121Z,18.03
2018-10-05T01:11:52.662Z,14.80
2018-10-05T01:14:56.262Z,14.43
2018-10-05T01:17:59.785Z,15.00
2018-10-05T01:21:03.505Z,14.73
2018-10-05T01:24:07.155Z,15.53
2018-10-05T01:27:10.867Z,16.67
2018-10-05T01:30:14.516Z,12.70
2018-10-05T01:33:18.047Z,16.10
2018-10-05T01:36:21.522Z,12.23
2018-10-05T01:39:25.146Z,17.63
2018-10-05T01:42:29.000Z,19.93
2018-10-05T01:45:32.550Z,17.07
2018-10-05T01:48:36.193Z,19.30
2018-10-05T01:51:39.717Z,17.20
2018-10-05T01:54:43.391Z,18.90
2018-10-05T01:57:47.036Z,17.17
2018-10-05T02:00:50.518Z,19.53
2018-10-05T02:03:54.131Z,17.53
2018-10-05T02:06:57.750Z,14.27
2018-10-05T02:10:01.277Z,19.30
2018-10-05T02:13:04.823Z,16.10
2018-10-05T02:16:08.737Z,15.83
2018-10-05T02:19:12.372Z,18.30
2018-10-05T02:22:16.036Z,16.47
2018-10-05T02:25:19.618Z,14.00
2018-10-05T02:28:23.229Z,14.50
2018-10-05T02:31:26.811Z,16.40
2018-10-05T02:34:30.398Z,16.20
2018-10-05T02:37:33.931Z,16.27
2018-10-05T02:40:37.558Z,17.90
2018-10-05T02:43:41.123Z,17.17
2018-10-05T02:46:44.642Z,17.73
2018-10-05T02:49:48.268Z,16.03
2018-10-05T02:52:51.955Z,15.87
2018-10-05T02:55:55.427Z,12.20
2018-10-05T02:58:58.973Z,14.87
2018-10-05T03:02:13.517Z,13.20
2018-10-05T03:05:17.131Z,18.17
2018-10-05T03:08:20.617Z,14.13
2018-10-05T03:11:24.188Z,14.83
2018-10-05T03:14:27.823Z,17.77
2018-10-05T03:17:31.320Z,17.10
2018-10-05T03:20:34.833Z,20.17
2018-10-05T03:23:38.628Z,16.53
2018-10-05T03:26:42.271Z,16.20
2018-10-05T03:29:45.973Z,15.20
2018-10-05T03:32:49.546Z,19.97
2018-10-05T03:35:53.142Z,12.70
2018-10-05T03:38:56.685Z,16.50
2018-10-05T03:42:00.306Z,19.53
2018-10-05T03:45:03.875Z,15.87
2018-10-05T03:48:07.458Z,19.47
2018-10-05T03:51:11.058Z,15.17
2018-10-05T03:54:14.592Z,17.70
2018-10-05T03:57:18.184Z,12.77
2018-10-05T04:00:21.802Z,17.57
2018-10-05T04:03:25.335Z,20.00
2018-10-05T04:06:28.944Z,21.03
2018-10-05T04:09:32.471Z,18.67
2018-10-05T04:12:36.197Z,15.60
2018-10-05T04:15:39.757Z,17.50
2018-10-05T04:18:43.298Z,14.40
2018-10-05T04:21:46.989Z,16.40
2018-10-05T04:24:50.529Z,15.63
2018-10-05T04:27:54.156Z,16.33
2018-10-05T04:30:57.725Z,15.73
2018-10-05T04:34:01.326Z,14.10
2018-10-05T04:37:05.087Z,13.03
2018-10-05T04:40:08.637Z,14.70
2018-10-05T04:43:12.292Z,14.30
2018-10-05T04:46:15.799Z,13.60
2018-10-05T04:49:19.448Z,12.53
2018-10-05T04:52:23.047Z,12.40
2018-10-05T04:55:26.613Z,14.37
2018-10-05T04:58:30.199Z,15.60
2018-10-05T05:01:33.793Z,14.70
2018-10-05T05:04:37.312Z,14.07
2018-10-05T05:07:40.793Z,15.90
2018-10-05T05:10:44.275Z,14.87
2018-10-05T05:13:47.973Z,16.70
2018-10-05T05:16:51.469Z,17.67
2018-10-05T05:19:55.185Z,18.10
2018-10-05T05:22:58.869Z,14.10
2018-10-05T05:26:02.428Z,18.67
2018-10-05T05:29:06.413Z,16.70
2018-10-05T05:32:09.987Z,18.00
2018-10-05T05:35:13.529Z,18.00
2018-10-05T05:38:17.055Z,17.73
2018-10-05T05:41:20.573Z,17.47
2018-10-05T05:44:24.153Z,14.07
2018-10-05T05:47:27.695Z,15.23
2018-10-05T05:50:31.300Z,17.50
2018-10-05T05:53:34.989Z,20.07
2018-10-05T05:56:38.598Z,15.63
2018-10-05T05:59:42.113Z,15.03
2018-10-05T06:02:45.648Z,15.67
2018-10-05T06:05:49.275Z,15.90
2018-10-05T06:08:52.807Z,15.80
2018-10-05T06:11:56.324Z,15.77
2018-10-05T06:14:59.921Z,12.60
2018-10-05T06:18:03.550Z,14.33
2018-10-05T06:21:07.287Z,13.67
2018-10-05T06:24:10.907Z,12.37
2018-10-05T06:27:14.534Z,12.77
2018-10-05T06:30:18.111Z,15.50
2018-10-05T06:33:21.844Z,12.70
2018-10-05T06:36:25.314Z,15.23
2018-10-05T06:39:28.802Z,13.80
2018-10-05T06:42:32.393Z,15.53
2018-10-05T06:45:35.931Z,12.50
2018-10-05T06:48:39.724Z,13.67
2018-10-05T06:51:43.529Z,15.80
2018-10-05T06:54:47.154Z,12.50
2018-10-05T06:57:50.615Z,12.27
2018-10-05T07:00:54.214Z,12.00
2018-10-05T07:03:57.811Z,13.27
2018-10-05T07:07:01.316Z,15.50
2018-10-05T07:10:05.162Z,9.30
2018-10-05T07:13:08.801Z,11.00
2018-10-05T07:16:12.425Z,12.67
2018-10-05T07:19:15.935Z,10.67
2018-10-05T07:22:19.543Z,11.50
2018-10-05T07:25:23.166Z,13.43
2018-10-05T07:28:26.908Z,12.63
2018-10-05T07:31:30.375Z,13.17
2018-10-05T07:34:34.012Z,17.17
2018-10-05T07:37:37.524Z,10.50
2018-10-05T07:40:41.034Z,11.03
2018-10-05T07:43:44.556Z,10.93
2018-10-05T07:46:48.157Z,12.40
2018-10-05T07:49:51.796Z,16.10
2018-10-05T07:52:55.359Z,12.50
2018-10-05T07:55:59.059Z,13.67
2018-10-05T07:59:02.726Z,10.63
2018-10-05T08:02:06.566Z,11.73
2018-10-05T08:05:10.105Z,19.00
2018-10-05T08:08:13.581Z,13.70
2018-10-05T08:11:17.507Z,16.47
2018-10-05T08:14:21.009Z,16.60
2018-10-05T08:17:24.546Z,13.03
2018-10-05T08:20:28.257Z,9.37
2018-10-05T08:23:32.023Z,14.30
2018-10-05T08:26:36.680Z,13.90
2018-10-05T08:29:40.195Z,11.27
2018-10-05T08:32:43.843Z,12.40
2018-10-05T08:35:47.401Z,9.77
2018-10-05T08:38:51.011Z,18.13
2018-10-05T08:41:54.710Z,12.30
2018-10-05T08:44:58.301Z,9.83
2018-10-05T08:48:01.811Z,9.90
2018-10-05T08:51:05.377Z,18.77
2018-10-05T08:54:09.468Z,14.33
2018-10-05T08:57:13.199Z,15.83
2018-10-05T09:00:16.903Z,13.03
2018-10-05T09:03:20.472Z,9.37
2018-10-05T09:06:24.017Z,10.40
2018-10-05T09:09:27.546Z,9.80
2018-10-05T09:12:31.135Z,12.00
2018-10-05T09:15:34.716Z,8.93
2018-10-05T09:18:38.586Z,10.67
2018-10-05T09:21:42.147Z,13.20
2018-10-05T09:24:45.665Z,14.30
2018-10-05T09:27:49.200Z,11.80
2018-10-05T09:30:52.918Z,15.17
2018-10-05T09:33:56.557Z,10.33
2018-10-05T09:37:00.191Z,9.57
2018-10-05T09:40:03.787Z,11.07
2018-10-05T09:43:07.431Z,8.57
2018-10-05T09:46:11.209Z,13.93
2018-10-05T09:49:14.831Z,9.93
2018-10-05T09:52:18.577Z,19.40
2018-10-05T09:55:22.272Z,9.53
2018-10-05T09:58:25.848Z,10.20
2018-10-05T10:01:34.656Z,9.00
2018-10-05T10:04:38.192Z,11.90
2018-10-05T10:07:41.838Z,9.10
2018-10-05T10:10:45.495Z,11.40
2018-10-05T10:13:49.129Z,8.70
2018-10-05T10:16:52.616Z,17.47
2018-10-05T10:19:56.247Z,9.93
2018-10-05T10:22:59.821Z,11.50
2018-10-05T10:26:03.482Z,8.07
2018-10-05T10:29:07.132Z,7.77
2018-10-05T10:32:10.519Z,9.63
2018-10-05T10:35:14.151Z,9.37
2018-10-05T10:38:17.786Z,9.17
2018-10-05T10:41:21.413Z,6.97
2018-10-05T10:44:24.978Z,11.10
2018-10-05T10:47:28.755Z,14.50
2018-10-05T10:50:32.302Z,7.67
2018-10-05T10:53:35.894Z,11.70
2018-10-05T10:56:39.469Z,7.53
2018-10-05T10:59:43.029Z,8.57
2018-10-05T11:02:46.552Z,10.37
2018-10-05T11:05:50.157Z,7.00
2018-10-05T11:08:53.679Z,14.33
2018-10-05T11:11:57.222Z,11.27
2018-10-05T11:15:00.789Z,11.53
2018-10-05T11:18:04.285Z,7.77
2018-10-05T11:21:08.008Z,7.77
2018-10-05T11:24:11.593Z,9.03
2018-10-05T11:27:15.205Z,9.00
2018-10-05T11:30:18.887Z,11.73
2018-10-05T11:33:22.388Z,8.43
2018-10-05T11:36:25.932Z,7.50
2018-10-05T11:39:29.534Z,9.90
2018-10-05T11:42:33.127Z,6.87
2018-10-05T11:45:36.837Z,7.00
2018-10-05T11:48:40.413Z,8.97
2018-10-05T11:51:44.085Z,7.70
2018-10-05T11:54:47.645Z,9.90
2018-10-05T11:57:51.328Z,7.87
2018-10-05T12:00:54.930Z,10.43
2018-10-05T12:03:58.498Z,7.70
2018-10-05T12:07:02.148Z,14.57
2018-10-05T12:10:06.014Z,6.37
2018-10-05T12:13:09.527Z,7.93
2018-10-05T12:16:13.133Z,7.50
2018-10-05T12:19:16.703Z,6.70
2018-10-05T12:22:20.510Z,6.07
2018-10-05T12:25:24.188Z,5.60
2018-10-05T12:28:27.739Z,7.70
2018-10-05T12:31:31.404Z,3.60
2018-10-05T12:34:35.010Z,10.47
2018-10-05T12:37:38.699Z,9.50
2018-10-05T12:40:42.374Z,7.50
2018-10-05T12:43:46.026Z,5.77
2018-10-05T12:46:49.558Z,5.23
2018-10-05T12:49:53.989Z,6.50
2018-10-05T12:52:57.815Z,8.47
2018-10-05T12:56:01.444Z,5.57
2018-10-05T12:59:05.068Z,5.83
2018-10-05T13:02:08.780Z,5.47
2018-10-05T13:05:12.348Z,9.13
2018-10-05T13:08:16.085Z,5.70
2018-10-05T13:11:19.665Z,6.83
2018-10-05T13:14:23.290Z,7.50
2018-10-05T13:17:27.099Z,7.30
2018-10-05T13:20:30.667Z,7.23
2018-10-05T13:23:34.267Z,6.83
2018-10-05T13:26:37.886Z,7.53
2018-10-05T13:29:41.525Z,6.40
2018-10-05T13:32:45.240Z,7.60
2018-10-05T13:35:48.800Z,6.63
2018-10-05T13:38:52.430Z,8.73
2018-10-05T13:41:56.165Z,8.77
2018-10-05T13:44:59.728Z,12.50
2018-10-05T13:48:03.299Z,8.60
2018-10-05T13:51:07.005Z,5.87
2018-10-05T13:54:10.600Z,10.30
2018-10-05T13:57:14.220Z,6.40
2018-10-05T14:00:17.827Z,7.83
2018-10-05T14:03:21.479Z,6.53
2018-10-05T14:06:25.168Z,5.93
2018-10-05T14:09:28.759Z,9.30
2018-10-05T14:12:32.330Z,7.10
2018-10-05T14:15:35.974Z,14.23
2018-10-05T14:18:39.563Z,11.73
2018-10-05T14:21:43.255Z,12.33
2018-10-05T14:24:46.884Z,7.30
2018-10-05T14:27:50.476Z,5.70
2018-10-05T14:30:54.034Z,9.27
2018-10-05T14:33:57.664Z,7.43
2018-10-05T14:37:01.224Z,11.27
2018-10-05T14:40:05.136Z,9.30
2018-10-05T14:43:08.676Z,6.80
2018-10-05T14:46:12.336Z,9.20
2018-10-05T14:49:16.116Z,7.10
2018-10-05T14:52:23.945Z,11.80
2018-10-05T14:55:27.636Z,8.33
2018-10-05T14:58:31.209Z,7.40
2018-10-05T15:01:34.916Z,11.83
2018-10-05T15:04:38.626Z,5.23
2018-10-05T15:07:42.204Z,9.70
2018-10-05T15:10:46.031Z,7.23
2018-10-05T15:13:49.701Z,9.80
2018-10-05T15:16:53.377Z,11.83
2018-10-05T15:19:56.994Z,13.57
2018-10-05T15:23:00.665Z,9.73
2018-10-05T15:26:04.269Z,11.97
2018-10-05T15:29:07.897Z,12.00
2018-10-05T15:32:11.514Z,11.30
2018-10-05T15:35:15.097Z,10.50
2018-10-05T15:38:18.699Z,7.60
2018-10-05T15:41:22.245Z,9.07
2018-10-05T15:44:25.865Z,8.93
2018-10-05T15:47:29.413Z,10.73
2018-10-05T15:50:33.041Z,7.00
2018-10-05T15:53:36.893Z,11.90
2018-10-05T15:56:40.454Z,6.93
2018-10-05T15:59:44.073Z,12.17
2018-10-05T16:02:47.640Z,8.17
2018-10-05T16:05:51.464Z,5.43
2018-10-05T16:08:55.020Z,7.90
2018-10-05T16:11:58.672Z,7.47
2018-10-05T16:15:02.324Z,12.47
2018-10-05T16:18:05.970Z,12.53
2018-10-05T16:21:09.571Z,9.17
2018-10-05T16:24:21.375Z,9.70
2018-10-05T16:27:24.985Z,9.73
2018-10-05T16:30:28.644Z,11.00
2018-10-05T16:33:32.292Z,9.63
2018-10-05T16:36:35.877Z,6.07
2018-10-05T16:39:39.613Z,4.80
2018-10-05T16:42:43.391Z,8.40
2018-10-05T16:45:47.023Z,8.20
2018-10-05T16:48:50.668Z,9.10
2018-10-05T16:51:54.383Z,8.00
2018-10-05T16:54:58.068Z,6.53
2018-10-05T16:58:01.763Z,10.57
2018-10-05T17:01:05.378Z,6.40
2018-10-05T17:04:08.946Z,10.60
2018-10-05T17:07:12.536Z,10.27
2018-10-05T17:10:16.123Z,6.63
2018-10-05T17:13:19.722Z,5.20
2018-10-05T17:16:23.307Z,8.33
2018-10-05T17:19:27.044Z,6.77
2018-10-05T17:22:30.681Z,8.97
2018-10-05T17:25:34.316Z,13.03
2018-10-05T17:28:38.034Z,8.40
2018-10-05T17:31:41.712Z,4.77
2018-10-05T17:34:45.349Z,9.77
2018-10-05T17:37:49.235Z,8.80
2018-10-05T17:40:53.029Z,9.47
2018-10-05T17:43:56.630Z,8.67
2018-10-05T17:47:00.285Z,5.40
2018-10-05T17:50:04.303Z,6.67
2018-10-05T17:53:08.032Z,10.20
2018-10-05T17:56:11.753Z,7.43
2018-10-05T17:59:15.269Z,11.77
2018-10-05T18:02:19.094Z,6.13
2018-10-05T18:05:22.830Z,9.60
2018-10-05T18:08:26.684Z,5.80
2018-10-05T18:11:30.282Z,10.20
2018-10-05T18:14:34.007Z,9.93
2018-10-05T18:17:38.144Z,8.80
2018-10-05T18:20:41.858Z,6.90
2018-10-05T18:23:45.455Z,8.27
2018-10-05T18:26:49.122Z,6.27
2018-10-05T18:29:52.734Z,6.60
2018-10-05T18:32:56.479Z,8.10
2018-10-05T18:36:00.192Z,8.27
2018-10-05T18:39:05.060Z,6.50
2018-10-05T18:42:08.708Z,10.60
2018-10-05T18:45:12.392Z,5.60
2018-10-05T18:48:16.060Z,10.70
2018-10-05T18:51:20.006Z,8.03
2018-10-05T18:54:23.686Z,7.73
2018-10-05T18:57:27.726Z,9.03
2018-10-05T19:00:31.405Z,5.73
2018-10-05T19:03:35.118Z,7.07
2018-10-05T19:06:39.041Z,9.30
2018-10-05T19:09:43.003Z,6.83
2018-10-05T19:12:46.663Z,5.20
2018-10-05T19:15:50.338Z,12.50
2018-10-05T19:18:54.133Z,5.03
2018-10-05T19:21:57.724Z,5.57
2018-10-05T19:25:01.680Z,6.67
2018-10-05T19:28:05.334Z,10.00
2018-10-05T19:31:09.099Z,8.93
2018-10-05T19:34:12.906Z,7.63
2018-10-05T19:37:16.504Z,8.40
2018-10-05T19:40:20.287Z,7.40
2018-10-05T19:43:23.970Z,10.13
2018-10-05T19:46:27.910Z,6.70
2018-10-05T19:49:31.780Z,9.10
2018-10-05T19:52:35.699Z,8.43
2018-10-05T19:55:39.452Z,9.70
2018-10-05T19:58:43.183Z,6.73
2018-10-05T20:01:47.033Z,8.80
2018-10-05T20:04:51.674Z,6.90
2018-10-05T20:07:55.382Z,5.77
2018-10-05T20:10:59.091Z,5.90
2018-10-05T20:14:02.710Z,10.90
2018-10-05T20:17:06.660Z,9.23
2018-10-05T20:20:10.383Z,9.50
2018-10-05T20:23:14.100Z,10.73
2018-10-05T20:26:17.682Z,11.10
2018-10-05T20:29:21.415Z,6.83
2018-10-05T20:32:25.171Z,8.70
2018-10-05T20:35:28.927Z,5.77
2018-10-05T20:38:32.649Z,6.27
2018-10-05T20:41:36.786Z,13.80
2018-10-05T20:44:40.624Z,29.13
2018-10-05T20:47:44.230Z,6.20
2018-10-05T20:50:48.083Z,10.00
2018-10-05T20:53:51.974Z,9.87
2018-10-05T20:56:55.670Z,9.37
2018-10-05T20:59:59.445Z,6.47
2018-10-05T21:03:03.489Z,11.20
2018-10-05T21:06:07.283Z,6.20
2018-10-05T21:09:11.397Z,7.43
2018-10-05T21:12:15.011Z,7.27
2018-10-05T21:15:18.844Z,9.33
2018-10-05T21:18:22.443Z,10.37
2018-10-05T21:21:26.043Z,13.20
2018-10-05T21:24:29.639Z,12.53
2018-10-05T21:27:33.410Z,7.50
2018-10-05T21:30:37.126Z,11.33
2018-10-05T21:33:42.172Z,7.37
2018-10-05T21:36:45.801Z,13.03
2018-10-05T21:39:49.355Z,8.47
2018-10-05T21:42:52.991Z,8.53
2018-10-05T21:45:56.758Z,18.30
2018-10-05T21:49:00.468Z,7.90
2018-10-05T21:52:04.383Z,11.67
2018-10-05T21:55:07.988Z,13.70
2018-10-05T21:58:11.627Z,13.20
2018-10-05T22:01:15.422Z,15.40
2018-10-05T22:04:19.231Z,7.50
2018-10-05T22:07:23.190Z,7.70
2018-10-05T22:10:26.720Z,13.40
2018-10-05T22:13:30.587Z,8.77
2018-10-05T22:16:34.353Z,12.70
2018-10-05T22:19:38.189Z,5.57
2018-10-05T22:22:41.667Z,10.70
2018-10-05T22:25:53.890Z,12.57
2018-10-05T22:28:57.682Z,8.80
2018-10-05T22:32:01.462Z,8.33
2018-10-05T22:35:05.350Z,9.20
2018-10-05T22:38:09.220Z,7.47
2018-10-05T22:41:12.812Z,5.43
2018-10-05T22:44:16.423Z,9.57
2018-10-05T22:47:20.012Z,6.90
2018-10-05T22:50:23.566Z,6.83
2018-10-05T22:53:27.321Z,9.07
2018-10-05T22:56:30.924Z,7.10
2018-10-05T22:59:34.580Z,6.37
2018-10-05T23:02:38.283Z,8.63
2018-10-05T23:05:41.857Z,9.13
2018-10-05T23:08:45.509Z,7.97
2018-10-05T23:11:49.281Z,7.00
2018-10-05T23:14:53.031Z,8.33
2018-10-05T23:17:56.692Z,14.83
2018-10-05T23:21:00.256Z,10.30
2018-10-05T23:24:04.010Z,8.93
2018-10-05T23:27:07.736Z,8.43
2018-10-05T23:30:11.312Z,7.23
2018-10-05T23:33:15.111Z,8.77
2018-10-05T23:36:18.706Z,9.40
2018-10-05T23:39:22.258Z,5.50
2018-10-05T23:42:25.825Z,7.03
2018-10-05T23:45:29.351Z,6.40
2018-10-05T23:48:32.917Z,10.77
2018-10-05T23:51:37.376Z,6.03
2018-10-05T23:54:40.950Z,10.23
2018-10-05T23:57:44.783Z,8.87
